sensor_id;sensor_type;location;lat;lon;timestamp;temperature;humidity
10175;DHT22;18221;38.704;0.152;2022-11-04T00:00:20;20.20;99.90
10175;DHT22;18221;38.704;0.152;2022-11-04T00:19:06;20.10;99.90
10175;DHT22;18221;38.704;0.152;2022-11-04T00:21:34;20.10;99.90
10175;DHT22;18221;38.704;0.152;2022-11-04T00:24:18;20.00;99.90
10175;DHT22;18221;38.704;0.152;2022-11-04T00:27:03;20.00;99.90
10175;DHT22;18221;38.704;0.152;2022-11-04T00:29:48;20.10;99.90
10175;DHT22;18221;38.704;0.152;2022-11-04T00:32:16;20.00;99.90
10175;DHT22;18221;38.704;0.152;2022-11-04T00:35:03;20.00;99.90
10175;DHT22;18221;38.704;0.152;2022-11-04T00:37:34;20.00;99.90
10175;DHT22;18221;38.704;0.152;2022-11-04T00:40:03;20.00;99.90
10175;DHT22;18221;38.704;0.152;2022-11-04T00:42:32;20.10;99.90
10175;DHT22;18221;38.704;0.152;2022-11-04T00:45:00;20.00;99.90
10175;DHT22;18221;38.704;0.152;2022-11-04T00:47:28;20.10;99.90
10175;DHT22;18221;38.704;0.152;2022-11-04T00:49:56;20.10;99.90
10175;DHT22;18221;38.704;0.152;2022-11-04T00:52:25;20.10;99.90
10175;DHT22;18221;38.704;0.152;2022-11-04T00:54:53;20.10;99.90
10175;DHT22;18221;38.704;0.152;2022-11-04T00:57:21;20.10;99.90
10175;DHT22;18221;38.704;0.152;2022-11-04T00:59:49;20.00;99.90
10175;DHT22;18221;38.704;0.152;2022-11-04T01:02:17;20.00;99.90
10175;DHT22;18221;38.704;0.152;2022-11-04T01:04:46;20.00;99.90
10175;DHT22;18221;38.704;0.152;2022-11-04T01:07:13;20.00;99.90
10175;DHT22;18221;38.704;0.152;2022-11-04T01:09:44;20.00;99.90
10175;DHT22;18221;38.704;0.152;2022-11-04T01:12:12;20.00;99.90
10175;DHT22;18221;38.704;0.152;2022-11-04T01:14:41;20.00;99.90
10175;DHT22;18221;38.704;0.152;2022-11-04T01:17:09;20.00;99.90
10175;DHT22;18221;38.704;0.152;2022-11-04T01:19:37;19.90;99.90
10175;DHT22;18221;38.704;0.152;2022-11-04T01:22:05;19.90;99.90
10175;DHT22;18221;38.704;0.152;2022-11-04T01:24:33;19.90;99.90
10175;DHT22;18221;38.704;0.152;2022-11-04T01:27:02;19.80;99.90
10175;DHT22;18221;38.704;0.152;2022-11-04T01:29:30;19.70;99.90
10175;DHT22;18221;38.704;0.152;2022-11-04T01:31:58;19.70;99.90
10175;DHT22;18221;38.704;0.152;2022-11-04T01:34:26;19.70;99.90
10175;DHT22;18221;38.704;0.152;2022-11-04T01:36:54;19.60;99.90
10175;DHT22;18221;38.704;0.152;2022-11-04T01:39:21;19.60;99.90
10175;DHT22;18221;38.704;0.152;2022-11-04T01:41:49;19.70;99.90
10175;DHT22;18221;38.704;0.152;2022-11-04T01:44:47;19.60;99.90
10175;DHT22;18221;38.704;0.152;2022-11-04T01:47:18;19.30;99.90
10175;DHT22;18221;38.704;0.152;2022-11-04T01:49:51;19.60;99.90
10175;DHT22;18221;38.704;0.152;2022-11-04T01:52:27;19.60;99.90
10175;DHT22;18221;38.704;0.152;2022-11-04T01:55:01;19.60;99.90
10175;DHT22;18221;38.704;0.152;2022-11-04T01:57:37;19.60;99.90
10175;DHT22;18221;38.704;0.152;2022-11-04T02:00:10;19.60;99.90
10175;DHT22;18221;38.704;0.152;2022-11-04T02:02:47;19.50;99.90
10175;DHT22;18221;38.704;0.152;2022-11-04T02:05:20;19.50;99.90
10175;DHT22;18221;38.704;0.152;2022-11-04T02:07:50;19.50;99.90
10175;DHT22;18221;38.704;0.152;2022-11-04T02:10:24;19.40;99.90
10175;DHT22;18221;38.704;0.152;2022-11-04T02:12:54;19.40;99.90
10175;DHT22;18221;38.704;0.152;2022-11-04T02:15:36;19.40;99.90
10175;DHT22;18221;38.704;0.152;2022-11-04T02:18:41;19.30;99.90
10175;DHT22;18221;38.704;0.152;2022-11-04T02:21:47;19.30;99.90
10175;DHT22;18221;38.704;0.152;2022-11-04T02:25:00;19.20;99.90
10175;DHT22;18221;38.704;0.152;2022-11-04T02:28:08;19.20;99.90
10175;DHT22;18221;38.704;0.152;2022-11-04T02:30:56;19.20;99.90
10175;DHT22;18221;38.704;0.152;2022-11-04T02:33:36;19.10;99.90
10175;DHT22;18221;38.704;0.152;2022-11-04T02:36:13;19.10;99.90
10175;DHT22;18221;38.704;0.152;2022-11-04T02:38:51;19.10;99.90
10175;DHT22;18221;38.704;0.152;2022-11-04T02:41:32;19.10;99.90
10175;DHT22;18221;38.704;0.152;2022-11-04T02:44:12;19.00;99.90
10175;DHT22;18221;38.704;0.152;2022-11-04T02:46:50;19.00;99.90
10175;DHT22;18221;38.704;0.152;2022-11-04T02:49:26;18.90;99.90
10175;DHT22;18221;38.704;0.152;2022-11-04T02:52:03;18.90;99.90
10175;DHT22;18221;38.704;0.152;2022-11-04T02:54:44;18.90;99.90
10175;DHT22;18221;38.704;0.152;2022-11-04T02:57:18;18.80;99.90
10175;DHT22;18221;38.704;0.152;2022-11-04T02:59:54;18.80;99.90
10175;DHT22;18221;38.704;0.152;2022-11-04T03:02:32;18.40;99.90
10175;DHT22;18221;38.704;0.152;2022-11-04T03:05:06;18.70;99.90
10175;DHT22;18221;38.704;0.152;2022-11-04T03:07:40;18.70;99.90
10175;DHT22;18221;38.704;0.152;2022-11-04T03:10:13;18.70;99.90
10175;DHT22;18221;38.704;0.152;2022-11-04T03:12:48;18.60;99.90
10175;DHT22;18221;38.704;0.152;2022-11-04T03:15:25;18.60;99.90
10175;DHT22;18221;38.704;0.152;2022-11-04T03:18:03;18.60;99.90
10175;DHT22;18221;38.704;0.152;2022-11-04T03:20:40;18.60;99.90
10175;DHT22;18221;38.704;0.152;2022-11-04T03:23:11;18.60;99.90
10175;DHT22;18221;38.704;0.152;2022-11-04T03:25:43;18.60;99.90
10175;DHT22;18221;38.704;0.152;2022-11-04T03:28:22;18.60;99.90
10175;DHT22;18221;38.704;0.152;2022-11-04T03:31:00;18.60;99.90
10175;DHT22;18221;38.704;0.152;2022-11-04T03:33:37;18.60;99.90
10175;DHT22;18221;38.704;0.152;2022-11-04T03:36:09;18.60;99.90
10175;DHT22;18221;38.704;0.152;2022-11-04T03:38:37;18.60;99.90
10175;DHT22;18221;38.704;0.152;2022-11-04T03:41:09;18.60;99.90
10175;DHT22;18221;38.704;0.152;2022-11-04T03:43:41;18.60;99.90
10175;DHT22;18221;38.704;0.152;2022-11-04T03:46:09;18.60;99.90
10175;DHT22;18221;38.704;0.152;2022-11-04T03:48:39;18.50;99.90
10175;DHT22;18221;38.704;0.152;2022-11-04T03:51:10;18.50;99.90
10175;DHT22;18221;38.704;0.152;2022-11-04T03:53:38;18.50;99.90
10175;DHT22;18221;38.704;0.152;2022-11-04T03:56:32;18.40;99.90
10175;DHT22;18221;38.704;0.152;2022-11-04T03:59:23;18.40;99.90
10175;DHT22;18221;38.704;0.152;2022-11-04T04:02:09;18.40;99.90
10175;DHT22;18221;38.704;0.152;2022-11-04T04:04:52;18.50;99.90
10175;DHT22;18221;38.704;0.152;2022-11-04T04:07:30;18.50;99.90
10175;DHT22;18221;38.704;0.152;2022-11-04T04:10:07;18.50;99.90
10175;DHT22;18221;38.704;0.152;2022-11-04T04:13:01;18.40;99.90
10175;DHT22;18221;38.704;0.152;2022-11-04T04:15:41;18.40;99.90
10175;DHT22;18221;38.704;0.152;2022-11-04T04:18:16;18.40;99.90
10175;DHT22;18221;38.704;0.152;2022-11-04T04:20:55;18.40;99.90
10175;DHT22;18221;38.704;0.152;2022-11-04T04:23:28;18.40;99.90
10175;DHT22;18221;38.704;0.152;2022-11-04T04:26:18;18.40;99.90
10175;DHT22;18221;38.704;0.152;2022-11-04T04:29:06;18.40;99.90
10175;DHT22;18221;38.704;0.152;2022-11-04T04:31:37;18.40;99.90
10175;DHT22;18221;38.704;0.152;2022-11-04T04:34:17;18.40;99.90
10175;DHT22;18221;38.704;0.152;2022-11-04T04:36:55;18.40;99.90
10175;DHT22;18221;38.704;0.152;2022-11-04T04:39:32;18.40;99.90
10175;DHT22;18221;38.704;0.152;2022-11-04T04:42:21;18.30;99.90
10175;DHT22;18221;38.704;0.152;2022-11-04T04:45:08;18.40;99.90
10175;DHT22;18221;38.704;0.152;2022-11-04T04:47:40;18.40;99.90
10175;DHT22;18221;38.704;0.152;2022-11-04T04:50:13;18.30;99.90
10175;DHT22;18221;38.704;0.152;2022-11-04T04:52:45;18.30;99.90
10175;DHT22;18221;38.704;0.152;2022-11-04T04:55:15;18.30;99.90
10175;DHT22;18221;38.704;0.152;2022-11-04T04:57:44;18.30;99.90
10175;DHT22;18221;38.704;0.152;2022-11-04T05:00:14;18.20;99.90
10175;DHT22;18221;38.704;0.152;2022-11-04T05:02:44;18.20;99.90
10175;DHT22;18221;38.704;0.152;2022-11-04T05:05:12;18.20;99.90
10175;DHT22;18221;38.704;0.152;2022-11-04T05:07:40;18.20;99.90
10175;DHT22;18221;38.704;0.152;2022-11-04T05:10:12;18.30;99.90
10175;DHT22;18221;38.704;0.152;2022-11-04T05:12:41;18.30;99.90
10175;DHT22;18221;38.704;0.152;2022-11-04T05:15:27;18.30;99.90
10175;DHT22;18221;38.704;0.152;2022-11-04T05:17:57;18.20;99.90
10175;DHT22;18221;38.704;0.152;2022-11-04T05:20:26;18.20;99.90
10175;DHT22;18221;38.704;0.152;2022-11-04T05:22:56;18.20;99.90
10175;DHT22;18221;38.704;0.152;2022-11-04T05:25:24;18.20;99.90
10175;DHT22;18221;38.704;0.152;2022-11-04T05:27:52;18.30;99.90
10175;DHT22;18221;38.704;0.152;2022-11-04T05:30:20;18.30;99.90
10175;DHT22;18221;38.704;0.152;2022-11-04T05:32:48;18.30;99.90
10175;DHT22;18221;38.704;0.152;2022-11-04T05:35:16;18.30;99.90
10175;DHT22;18221;38.704;0.152;2022-11-04T05:37:43;18.20;99.90
10175;DHT22;18221;38.704;0.152;2022-11-04T05:40:13;18.20;99.90
10175;DHT22;18221;38.704;0.152;2022-11-04T05:42:41;18.20;99.90
10175;DHT22;18221;38.704;0.152;2022-11-04T05:45:09;18.20;99.90
10175;DHT22;18221;38.704;0.152;2022-11-04T05:47:37;18.20;99.90
10175;DHT22;18221;38.704;0.152;2022-11-04T05:50:06;18.20;99.90
10175;DHT22;18221;38.704;0.152;2022-11-04T05:52:34;18.30;99.90
10175;DHT22;18221;38.704;0.152;2022-11-04T05:55:02;18.30;99.90
10175;DHT22;18221;38.704;0.152;2022-11-04T05:57:31;18.30;99.90
10175;DHT22;18221;38.704;0.152;2022-11-04T06:00:00;18.30;99.90
10175;DHT22;18221;38.704;0.152;2022-11-04T06:02:28;17.30;99.90
10175;DHT22;18221;38.704;0.152;2022-11-04T06:04:56;18.30;99.90
10175;DHT22;18221;38.704;0.152;2022-11-04T06:07:24;18.30;99.90
10175;DHT22;18221;38.704;0.152;2022-11-04T06:09:51;18.30;99.90
10175;DHT22;18221;38.704;0.152;2022-11-04T06:12:19;18.40;99.90
10175;DHT22;18221;38.704;0.152;2022-11-04T06:14:49;18.30;99.90
10175;DHT22;18221;38.704;0.152;2022-11-04T06:17:18;18.40;99.90
10175;DHT22;18221;38.704;0.152;2022-11-04T06:19:47;18.40;99.90
10175;DHT22;18221;38.704;0.152;2022-11-04T06:22:17;18.40;99.90
10175;DHT22;18221;38.704;0.152;2022-11-04T06:24:46;18.30;99.90
10175;DHT22;18221;38.704;0.152;2022-11-04T06:27:14;18.30;99.90
10175;DHT22;18221;38.704;0.152;2022-11-04T06:29:42;18.30;99.90
10175;DHT22;18221;38.704;0.152;2022-11-04T06:32:14;18.30;99.90
10175;DHT22;18221;38.704;0.152;2022-11-04T06:34:44;18.20;99.90
10175;DHT22;18221;38.704;0.152;2022-11-04T06:37:12;18.20;99.90
10175;DHT22;18221;38.704;0.152;2022-11-04T06:39:40;18.20;99.90
10175;DHT22;18221;38.704;0.152;2022-11-04T06:42:08;18.10;99.90
10175;DHT22;18221;38.704;0.152;2022-11-04T06:44:36;18.10;99.90
10175;DHT22;18221;38.704;0.152;2022-11-04T06:47:04;18.10;99.90
10175;DHT22;18221;38.704;0.152;2022-11-04T06:49:33;18.10;99.90
10175;DHT22;18221;38.704;0.152;2022-11-04T06:52:01;18.10;99.90
10175;DHT22;18221;38.704;0.152;2022-11-04T06:54:29;18.00;99.90
10175;DHT22;18221;38.704;0.152;2022-11-04T06:56:57;18.00;99.90
10175;DHT22;18221;38.704;0.152;2022-11-04T06:59:25;18.00;99.90
10175;DHT22;18221;38.704;0.152;2022-11-04T07:01:52;17.90;99.90
10175;DHT22;18221;38.704;0.152;2022-11-04T07:04:20;17.90;99.90
10175;DHT22;18221;38.704;0.152;2022-11-04T07:06:50;17.90;99.90
10175;DHT22;18221;38.704;0.152;2022-11-04T07:09:18;17.80;99.90
10175;DHT22;18221;38.704;0.152;2022-11-04T07:11:46;17.80;99.90
10175;DHT22;18221;38.704;0.152;2022-11-04T07:14:14;17.90;99.90
10175;DHT22;18221;38.704;0.152;2022-11-04T07:16:41;17.90;99.90
10175;DHT22;18221;38.704;0.152;2022-11-04T07:19:09;17.90;99.90
10175;DHT22;18221;38.704;0.152;2022-11-04T07:21:37;17.90;99.90
10175;DHT22;18221;38.704;0.152;2022-11-04T07:24:07;17.90;99.90
10175;DHT22;18221;38.704;0.152;2022-11-04T07:26:35;17.90;99.90
10175;DHT22;18221;38.704;0.152;2022-11-04T07:29:03;18.00;99.90
10175;DHT22;18221;38.704;0.152;2022-11-04T07:31:31;17.90;99.90
10175;DHT22;18221;38.704;0.152;2022-11-04T07:33:59;17.90;99.90
10175;DHT22;18221;38.704;0.152;2022-11-04T07:36:28;17.90;99.90
10175;DHT22;18221;38.704;0.152;2022-11-04T07:38:56;17.90;99.90
10175;DHT22;18221;38.704;0.152;2022-11-04T07:41:25;17.90;99.90
10175;DHT22;18221;38.704;0.152;2022-11-04T07:43:53;17.90;99.90
10175;DHT22;18221;38.704;0.152;2022-11-04T07:46:21;17.90;99.90
10175;DHT22;18221;38.704;0.152;2022-11-04T07:48:48;17.90;99.90
10175;DHT22;18221;38.704;0.152;2022-11-04T07:51:19;17.90;99.90
10175;DHT22;18221;38.704;0.152;2022-11-04T07:53:47;17.90;99.90
10175;DHT22;18221;38.704;0.152;2022-11-04T07:56:16;17.90;99.90
10175;DHT22;18221;38.704;0.152;2022-11-04T07:58:46;18.00;99.90
10175;DHT22;18221;38.704;0.152;2022-11-04T08:01:16;18.00;99.90
10175;DHT22;18221;38.704;0.152;2022-11-04T08:03:45;18.00;99.90
10175;DHT22;18221;38.704;0.152;2022-11-04T08:06:15;18.10;99.90
10175;DHT22;18221;38.704;0.152;2022-11-04T08:08:45;18.10;99.90
10175;DHT22;18221;38.704;0.152;2022-11-04T08:11:15;18.20;99.90
10175;DHT22;18221;38.704;0.152;2022-11-04T08:13:46;18.20;99.90
10175;DHT22;18221;38.704;0.152;2022-11-04T08:16:16;18.30;99.90
10175;DHT22;18221;38.704;0.152;2022-11-04T08:18:47;18.20;99.90
10175;DHT22;18221;38.704;0.152;2022-11-04T08:21:17;18.20;99.90
10175;DHT22;18221;38.704;0.152;2022-11-04T08:23:46;18.20;99.90
10175;DHT22;18221;38.704;0.152;2022-11-04T08:26:18;18.30;99.90
10175;DHT22;18221;38.704;0.152;2022-11-04T08:28:49;18.30;99.90
10175;DHT22;18221;38.704;0.152;2022-11-04T08:31:18;18.30;99.90
10175;DHT22;18221;38.704;0.152;2022-11-04T08:33:51;18.40;99.90
10175;DHT22;18221;38.704;0.152;2022-11-04T08:36:21;18.50;99.90
10175;DHT22;18221;38.704;0.152;2022-11-04T08:38:50;18.50;99.90
10175;DHT22;18221;38.704;0.152;2022-11-04T08:41:22;18.50;99.90
10175;DHT22;18221;38.704;0.152;2022-11-04T08:43:53;18.60;99.90
10175;DHT22;18221;38.704;0.152;2022-11-04T08:46:22;18.60;99.90
10175;DHT22;18221;38.704;0.152;2022-11-04T08:48:50;18.60;99.90
10175;DHT22;18221;38.704;0.152;2022-11-04T08:51:20;18.70;99.90
10175;DHT22;18221;38.704;0.152;2022-11-04T08:53:50;18.70;99.90
10175;DHT22;18221;38.704;0.152;2022-11-04T08:56:21;18.80;99.90
10175;DHT22;18221;38.704;0.152;2022-11-04T08:58:52;18.80;99.90
10175;DHT22;18221;38.704;0.152;2022-11-04T09:01:21;18.90;99.90
10175;DHT22;18221;38.704;0.152;2022-11-04T09:03:49;18.90;99.90
10175;DHT22;18221;38.704;0.152;2022-11-04T09:06:20;18.90;99.90
10175;DHT22;18221;38.704;0.152;2022-11-04T09:08:50;19.00;99.90
10175;DHT22;18221;38.704;0.152;2022-11-04T09:11:20;19.00;99.90
10175;DHT22;18221;38.704;0.152;2022-11-04T09:13:48;19.10;99.90
10175;DHT22;18221;38.704;0.152;2022-11-04T09:16:17;19.10;99.90
10175;DHT22;18221;38.704;0.152;2022-11-04T09:18:45;19.10;99.90
10175;DHT22;18221;38.704;0.152;2022-11-04T09:21:13;19.20;99.90
10175;DHT22;18221;38.704;0.152;2022-11-04T09:23:41;19.20;99.90
10175;DHT22;18221;38.704;0.152;2022-11-04T09:26:11;19.20;99.90
10175;DHT22;18221;38.704;0.152;2022-11-04T09:28:40;19.30;99.90
10175;DHT22;18221;38.704;0.152;2022-11-04T09:31:12;19.30;99.90
10175;DHT22;18221;38.704;0.152;2022-11-04T09:33:42;19.30;99.90
10175;DHT22;18221;38.704;0.152;2022-11-04T09:36:11;19.30;99.90
10175;DHT22;18221;38.704;0.152;2022-11-04T09:38:40;19.40;99.90
10175;DHT22;18221;38.704;0.152;2022-11-04T09:41:36;19.30;99.90
10175;DHT22;18221;38.704;0.152;2022-11-04T09:44:25;19.40;99.90
10175;DHT22;18221;38.704;0.152;2022-11-04T09:46:58;19.40;99.90
10175;DHT22;18221;38.704;0.152;2022-11-04T09:49:33;19.40;99.90
10175;DHT22;18221;38.704;0.152;2022-11-04T09:52:12;19.50;99.90
10175;DHT22;18221;38.704;0.152;2022-11-04T09:54:49;19.50;99.90
10175;DHT22;18221;38.704;0.152;2022-11-04T09:57:23;19.60;99.90
10175;DHT22;18221;38.704;0.152;2022-11-04T09:59:52;19.60;99.90
10175;DHT22;18221;38.704;0.152;2022-11-04T10:02:42;19.70;99.90
10175;DHT22;18221;38.704;0.152;2022-11-04T10:05:31;19.60;99.90
10175;DHT22;18221;38.704;0.152;2022-11-04T10:08:30;19.70;99.90
10175;DHT22;18221;38.704;0.152;2022-11-04T10:11:16;19.70;99.90
10175;DHT22;18221;38.704;0.152;2022-11-04T10:14:05;19.70;99.90
10175;DHT22;18221;38.704;0.152;2022-11-04T10:16:56;19.70;99.90
10175;DHT22;18221;38.704;0.152;2022-11-04T10:19:41;19.80;99.90
10175;DHT22;18221;38.704;0.152;2022-11-04T10:22:26;19.80;99.90
10175;DHT22;18221;38.704;0.152;2022-11-04T10:25:03;19.80;99.90
10175;DHT22;18221;38.704;0.152;2022-11-04T10:27:37;19.80;99.90
10175;DHT22;18221;38.704;0.152;2022-11-04T10:30:15;19.80;99.90
10175;DHT22;18221;38.704;0.152;2022-11-04T10:32:52;19.80;99.90
10175;DHT22;18221;38.704;0.152;2022-11-04T10:35:31;19.90;99.90
10175;DHT22;18221;38.704;0.152;2022-11-04T10:38:32;19.90;99.90
10175;DHT22;18221;38.704;0.152;2022-11-04T10:41:15;19.90;99.90
10175;DHT22;18221;38.704;0.152;2022-11-04T10:43:49;19.90;99.90
10175;DHT22;18221;38.704;0.152;2022-11-04T10:46:29;20.00;99.90
10175;DHT22;18221;38.704;0.152;2022-11-04T10:49:30;20.00;99.90
10175;DHT22;18221;38.704;0.152;2022-11-04T10:52:16;20.00;99.90
10175;DHT22;18221;38.704;0.152;2022-11-04T10:54:47;20.00;99.90
10175;DHT22;18221;38.704;0.152;2022-11-04T10:57:17;20.10;99.90
10175;DHT22;18221;38.704;0.152;2022-11-04T10:59:53;20.10;99.90
10175;DHT22;18221;38.704;0.152;2022-11-04T11:02:46;20.10;99.90
10175;DHT22;18221;38.704;0.152;2022-11-04T11:05:21;20.10;99.90
10175;DHT22;18221;38.704;0.152;2022-11-04T11:07:53;20.10;99.90
10175;DHT22;18221;38.704;0.152;2022-11-04T11:10:25;20.10;99.90
10175;DHT22;18221;38.704;0.152;2022-11-04T11:12:57;20.10;99.90
10175;DHT22;18221;38.704;0.152;2022-11-04T11:15:30;20.10;99.90
10175;DHT22;18221;38.704;0.152;2022-11-04T11:18:13;20.20;99.90
10175;DHT22;18221;38.704;0.152;2022-11-04T11:20:45;20.20;99.90
10175;DHT22;18221;38.704;0.152;2022-11-04T11:23:37;20.20;99.90
10175;DHT22;18221;38.704;0.152;2022-11-04T11:26:15;20.30;99.90
10175;DHT22;18221;38.704;0.152;2022-11-04T11:28:49;20.30;99.90
10175;DHT22;18221;38.704;0.152;2022-11-04T11:31:22;20.30;99.90
10175;DHT22;18221;38.704;0.152;2022-11-04T11:33:54;20.30;99.90
10175;DHT22;18221;38.704;0.152;2022-11-04T11:36:25;20.40;99.90
10175;DHT22;18221;38.704;0.152;2022-11-04T11:39:00;20.40;99.90
10175;DHT22;18221;38.704;0.152;2022-11-04T11:41:34;20.40;99.90
10175;DHT22;18221;38.704;0.152;2022-11-04T11:44:22;20.40;99.90
10175;DHT22;18221;38.704;0.152;2022-11-04T11:46:58;20.50;99.90
10175;DHT22;18221;38.704;0.152;2022-11-04T11:49:30;20.50;99.90
10175;DHT22;18221;38.704;0.152;2022-11-04T11:55:05;20.60;99.90
10175;DHT22;18221;38.704;0.152;2022-11-04T11:57:46;20.70;99.90
10175;DHT22;18221;38.704;0.152;2022-11-04T12:00:18;20.70;99.90
10175;DHT22;18221;38.704;0.152;2022-11-04T12:02:57;20.70;99.90
10175;DHT22;18221;38.704;0.152;2022-11-04T12:05:34;20.80;99.90
10175;DHT22;18221;38.704;0.152;2022-11-04T12:08:23;20.80;99.90
10175;DHT22;18221;38.704;0.152;2022-11-04T12:11:06;20.80;99.90
10175;DHT22;18221;38.704;0.152;2022-11-04T12:13:46;20.90;99.90
10175;DHT22;18221;38.704;0.152;2022-11-04T12:16:28;20.90;99.90
10175;DHT22;18221;38.704;0.152;2022-11-04T12:19:32;20.90;99.90
10175;DHT22;18221;38.704;0.152;2022-11-04T12:22:16;21.00;99.90
10175;DHT22;18221;38.704;0.152;2022-11-04T12:24:58;21.00;99.90
10175;DHT22;18221;38.704;0.152;2022-11-04T12:27:40;21.00;99.90
10175;DHT22;18221;38.704;0.152;2022-11-04T12:30:21;21.10;99.90
10175;DHT22;18221;38.704;0.152;2022-11-04T12:33:00;21.10;99.90
10175;DHT22;18221;38.704;0.152;2022-11-04T12:35:54;21.10;99.90
10175;DHT22;18221;38.704;0.152;2022-11-04T12:38:55;21.20;99.90
10175;DHT22;18221;38.704;0.152;2022-11-04T12:41:52;21.20;99.90
10175;DHT22;18221;38.704;0.152;2022-11-04T12:44:33;21.30;99.90
10175;DHT22;18221;38.704;0.152;2022-11-04T12:47:20;21.40;99.90
10175;DHT22;18221;38.704;0.152;2022-11-04T12:50:08;21.30;99.90
10175;DHT22;18221;38.704;0.152;2022-11-04T12:53:33;21.30;99.90
10175;DHT22;18221;38.704;0.152;2022-11-04T12:56:34;21.30;99.90
10175;DHT22;18221;38.704;0.152;2022-11-04T12:59:28;21.30;99.90
10175;DHT22;18221;38.704;0.152;2022-11-04T13:02:15;21.40;99.90
10175;DHT22;18221;38.704;0.152;2022-11-04T13:04:55;21.40;99.90
10175;DHT22;18221;38.704;0.152;2022-11-04T13:07:31;21.50;99.90
10175;DHT22;18221;38.704;0.152;2022-11-04T13:10:06;21.50;99.90
10175;DHT22;18221;38.704;0.152;2022-11-04T13:12:43;21.50;99.90
10175;DHT22;18221;38.704;0.152;2022-11-04T13:15:17;21.50;99.90
10175;DHT22;18221;38.704;0.152;2022-11-04T13:17:52;21.40;99.90
10175;DHT22;18221;38.704;0.152;2022-11-04T13:20:28;21.50;99.90
10175;DHT22;18221;38.704;0.152;2022-11-04T13:23:06;21.50;99.90
10175;DHT22;18221;38.704;0.152;2022-11-04T13:25:43;21.50;99.90
10175;DHT22;18221;38.704;0.152;2022-11-04T13:28:14;21.40;99.90
10175;DHT22;18221;38.704;0.152;2022-11-04T13:30:49;21.40;99.90
10175;DHT22;18221;38.704;0.152;2022-11-04T13:33:32;21.40;99.90
10175;DHT22;18221;38.704;0.152;2022-11-04T13:36:17;21.50;99.90
10175;DHT22;18221;38.704;0.152;2022-11-04T13:38:53;21.50;99.90
10175;DHT22;18221;38.704;0.152;2022-11-04T13:41:56;21.50;99.90
10175;DHT22;18221;38.704;0.152;2022-11-04T13:44:39;21.50;99.90
10175;DHT22;18221;38.704;0.152;2022-11-04T13:47:16;21.50;99.90
10175;DHT22;18221;38.704;0.152;2022-11-04T13:49:52;21.60;99.90
10175;DHT22;18221;38.704;0.152;2022-11-04T13:52:24;21.60;99.90
10175;DHT22;18221;38.704;0.152;2022-11-04T13:54:57;21.60;99.90
10175;DHT22;18221;38.704;0.152;2022-11-04T13:57:29;21.60;99.90
10175;DHT22;18221;38.704;0.152;2022-11-04T14:00:18;21.70;99.90
10175;DHT22;18221;38.704;0.152;2022-11-04T14:02:49;21.60;99.90
10175;DHT22;18221;38.704;0.152;2022-11-04T14:06:03;21.60;99.90
10175;DHT22;18221;38.704;0.152;2022-11-04T14:08:33;21.50;99.90
10175;DHT22;18221;38.704;0.152;2022-11-04T14:11:07;21.50;99.90
10175;DHT22;18221;38.704;0.152;2022-11-04T14:14:01;21.50;99.90
10175;DHT22;18221;38.704;0.152;2022-11-04T14:16:43;21.40;99.90
10175;DHT22;18221;38.704;0.152;2022-11-04T14:22:47;21.50;99.90
10175;DHT22;18221;38.704;0.152;2022-11-04T14:25:25;21.50;99.90
10175;DHT22;18221;38.704;0.152;2022-11-04T14:27:57;21.50;99.90
10175;DHT22;18221;38.704;0.152;2022-11-04T14:30:33;21.50;99.90
10175;DHT22;18221;38.704;0.152;2022-11-04T14:33:20;21.40;99.90
10175;DHT22;18221;38.704;0.152;2022-11-04T14:35:56;21.40;99.90
10175;DHT22;18221;38.704;0.152;2022-11-04T14:38:46;21.30;99.90
10175;DHT22;18221;38.704;0.152;2022-11-04T14:41:22;21.30;99.90
10175;DHT22;18221;38.704;0.152;2022-11-04T14:43:59;21.20;99.90
10175;DHT22;18221;38.704;0.152;2022-11-04T14:46:33;22.10;99.90
10175;DHT22;18221;38.704;0.152;2022-11-04T14:49:36;21.20;99.90
10175;DHT22;18221;38.704;0.152;2022-11-04T14:52:21;21.20;99.90
10175;DHT22;18221;38.704;0.152;2022-11-04T14:54:56;21.20;99.90
10175;DHT22;18221;38.704;0.152;2022-11-04T14:57:34;21.20;99.90
10175;DHT22;18221;38.704;0.152;2022-11-04T15:00:26;21.10;99.90
10175;DHT22;18221;38.704;0.152;2022-11-04T15:03:15;21.00;99.90
10175;DHT22;18221;38.704;0.152;2022-11-04T15:05:51;20.90;99.90
10175;DHT22;18221;38.704;0.152;2022-11-04T15:08:31;20.90;99.90
10175;DHT22;18221;38.704;0.152;2022-11-04T15:11:05;20.90;99.90
10175;DHT22;18221;38.704;0.152;2022-11-04T15:13:42;20.90;99.90
10175;DHT22;18221;38.704;0.152;2022-11-04T15:16:14;20.90;99.90
10175;DHT22;18221;38.704;0.152;2022-11-04T15:18:46;20.80;99.90
10175;DHT22;18221;38.704;0.152;2022-11-04T15:21:15;20.80;99.90
10175;DHT22;18221;38.704;0.152;2022-11-04T15:23:45;20.80;99.90
10175;DHT22;18221;38.704;0.152;2022-11-04T15:26:20;20.70;99.90
10175;DHT22;18221;38.704;0.152;2022-11-04T15:28:50;20.80;99.90
10175;DHT22;18221;38.704;0.152;2022-11-04T15:31:20;20.70;99.90
10175;DHT22;18221;38.704;0.152;2022-11-04T15:33:53;20.70;99.90
10175;DHT22;18221;38.704;0.152;2022-11-04T15:36:25;20.70;99.90
10175;DHT22;18221;38.704;0.152;2022-11-04T15:38:57;20.60;99.90
10175;DHT22;18221;38.704;0.152;2022-11-04T15:41:30;20.60;99.90
10175;DHT22;18221;38.704;0.152;2022-11-04T15:44:19;20.60;99.90
10175;DHT22;18221;38.704;0.152;2022-11-04T15:46:52;20.50;99.90
10175;DHT22;18221;38.704;0.152;2022-11-04T15:49:23;20.50;99.90
10175;DHT22;18221;38.704;0.152;2022-11-04T15:51:54;20.50;99.90
10175;DHT22;18221;38.704;0.152;2022-11-04T15:54:27;20.50;99.90
10175;DHT22;18221;38.704;0.152;2022-11-04T15:57:03;20.40;99.90
10175;DHT22;18221;38.704;0.152;2022-11-04T15:59:44;20.40;99.90
10175;DHT22;18221;38.704;0.152;2022-11-04T16:02:22;20.50;99.90
10175;DHT22;18221;38.704;0.152;2022-11-04T16:05:05;20.40;99.90
10175;DHT22;18221;38.704;0.152;2022-11-04T16:07:47;20.30;99.90
10175;DHT22;18221;38.704;0.152;2022-11-04T16:10:25;20.20;99.90
10175;DHT22;18221;38.704;0.152;2022-11-04T16:12:58;20.20;99.90
10175;DHT22;18221;38.704;0.152;2022-11-04T16:15:32;20.10;99.90
10175;DHT22;18221;38.704;0.152;2022-11-04T16:18:04;20.10;99.90
10175;DHT22;18221;38.704;0.152;2022-11-04T16:20:33;20.00;99.90
10175;DHT22;18221;38.704;0.152;2022-11-04T16:23:02;20.00;99.90
10175;DHT22;18221;38.704;0.152;2022-11-04T16:25:33;19.90;99.90
10175;DHT22;18221;38.704;0.152;2022-11-04T16:28:03;19.90;99.90
10175;DHT22;18221;38.704;0.152;2022-11-04T16:30:31;19.80;99.90
10175;DHT22;18221;38.704;0.152;2022-11-04T16:33:08;19.90;99.90
10175;DHT22;18221;38.704;0.152;2022-11-04T16:35:43;19.80;99.90
10175;DHT22;18221;38.704;0.152;2022-11-04T16:38:11;19.70;99.90
10175;DHT22;18221;38.704;0.152;2022-11-04T16:40:39;19.60;99.90
10175;DHT22;18221;38.704;0.152;2022-11-04T16:43:11;19.60;99.90